»·PEaware :: N73726 KVNY-KOXR

N73726 :: KVNY-KOXR

FLIGHT INFORMATION

Flight Status: Arrived
Operator: Privately registered:
United States
More flights under this callsign
Pilot: Lior A. (7942)
Aircraft: CESSNA 172 SKYHAWK
(C172)
More flights by this aircraft type
Origin: KVNY Van Nuys
United States
Destination: KOXR Oxnard
United States
More flights between these airports :: More routes between these airports
Route: +CANOG2 FIM
File this flight plan on PilotEdge
Remarks:
Altitude:
(Current/Filed)
40ft
Speed:
(Current/Filed)
110kts
Departed: 24-Dec-17 03:52 PM
Arrived: 24-Dec-17 04:28 PM
Distance/Time
Traveled:
36nm/0:36
Distance/Time
To Go:
Arrived

Flight Plot

Page will automatically refresh every two minutes.


Map Options




Map Legend


Flown Route
Filed Route
Departure Airport
Arrival Airport
Navaid (VOR, NDB)
Fix

Horizontal Profiles

Position Reports

Time Latitude Longitude Heading Altitude Ground
Speed
24-Dec-17 15:40 34.217085 -118.496518 112 777ft 0kts
24-Dec-17 15:41 34.217085 -118.496518 112 777ft 0kts
24-Dec-17 15:42 34.217085 -118.496518 112 777ft 0kts
24-Dec-17 15:43 34.217084 -118.496514 112 777ft 0kts
24-Dec-17 15:44 34.217082 -118.496510 112 777ft 0kts
24-Dec-17 15:45 34.217081 -118.496506 112 777ft 0kts
24-Dec-17 15:46 34.217080 -118.496502 112 777ft 0kts
24-Dec-17 15:47 34.217079 -118.496498 112 777ft 0kts
24-Dec-17 15:48 34.217077 -118.496494 112 777ft 0kts
24-Dec-17 15:49 34.217076 -118.496490 112 777ft 0kts
24-Dec-17 15:50 34.217075 -118.496487 111 777ft 0kts
24-Dec-17 15:51 34.217073 -118.496483 111 777ft 0kts
24-Dec-17 15:52 34.217072 -118.496479 111 777ft 0kts
24-Dec-17 15:53 34.217071 -118.496475 111 777ft 0kts
24-Dec-17 15:54 34.217069 -118.496471 111 777ft 0kts
24-Dec-17 15:55 34.217092 -118.494764 93 777ft 26kts
24-Dec-17 15:56 34.217132 -118.492129 94 777ft 0kts
24-Dec-17 15:57 34.216150 -118.490988 179 777ft 20kts
24-Dec-17 15:58 34.200173 -118.489058 168 1037ft 68kts
24-Dec-17 15:59 34.179684 -118.485030 182 1712ft 76kts
24-Dec-17 16:00 34.160679 -118.498160 212 2526ft 80kts
24-Dec-17 16:01 34.145672 -118.518231 227 3288ft 85kts
24-Dec-17 16:02 34.128498 -118.540020 225 3904ft 96kts
24-Dec-17 16:03 34.119888 -118.566055 286 4004ft 87kts
24-Dec-17 16:04 34.131245 -118.590408 289 4060ft 82kts
24-Dec-17 16:05 34.137660 -118.618030 289 4030ft 88kts
24-Dec-17 16:06 34.144939 -118.645373 280 4040ft 86kts
24-Dec-17 16:07 34.151263 -118.673208 293 4044ft 86kts
24-Dec-17 16:08 34.156109 -118.701804 287 4041ft 85kts
24-Dec-17 16:09 34.164209 -118.728983 286 4034ft 86kts
24-Dec-17 16:10 34.170996 -118.756695 288 4045ft 86kts
24-Dec-17 16:11 34.178572 -118.784097 292 3887ft 87kts
24-Dec-17 16:12 34.190194 -118.809746 294 3869ft 89kts
24-Dec-17 16:13 34.199393 -118.836763 286 3898ft 87kts
24-Dec-17 16:14 34.207861 -118.864249 282 3918ft 88kts
24-Dec-17 16:15 34.211418 -118.893200 290 3874ft 95kts
24-Dec-17 16:16 34.215345 -118.922529 273 3920ft 90kts
24-Dec-17 16:17 34.218869 -118.951887 277 3921ft 89kts
24-Dec-17 16:18 34.224008 -118.980907 291 3926ft 88kts
24-Dec-17 16:19 34.230231 -119.007841 286 3893ft 81kts
24-Dec-17 16:20 34.234272 -119.035136 285 3857ft 82kts
24-Dec-17 16:21 34.238509 -119.061383 337 3771ft 85kts
24-Dec-17 16:22 34.248802 -119.046578 97 3811ft 81kts
24-Dec-17 16:23 34.237806 -119.016759 111 3758ft 87kts
24-Dec-17 16:24 34.228789 -118.990887 140 3765ft 87kts
24-Dec-17 16:25 34.210288 -118.993498 216 3761ft 84kts
24-Dec-17 16:26 34.196049 -119.019757 297 3325ft 89kts
24-Dec-17 16:27 34.209374 -119.036197 316 2894ft 85kts
24-Dec-17 16:28 34.213308 -119.066694 263 2065ft 84kts
24-Dec-17 16:29 34.213209 -119.089922 257 2054ft 88kts
24-Dec-17 16:30 34.211409 -119.122369 272 2215ft 82kts
24-Dec-17 16:31 34.211223 -119.145826 270 1666ft 87kts
24-Dec-17 16:32 34.213239 -119.171869 266 901ft 73kts
24-Dec-17 16:33 34.202113 -119.189665 225 467ft 72kts
24-Dec-17 16:34 34.200726 -119.208593 265 46ft 0kts
24-Dec-17 16:35 34.200261 -119.211771 240 46ft 0kts
24-Dec-17 16:36 34.200261 -119.211771 240 46ft 0kts
24-Dec-17 16:37 34.200261 -119.211772 240 46ft 0kts
24-Dec-17 16:38 34.200261 -119.211772 240 46ft 0kts
24-Dec-17 16:39 34.200261 -119.211773 240 46ft 0kts
24-Dec-17 16:40 34.200260 -119.211773 240 46ft 0kts
24-Dec-17 16:41 34.200260 -119.211773 240 46ft 0kts
24-Dec-17 16:42 34.200260 -119.211774 240 46ft 0kts
24-Dec-17 16:43 34.200260 -119.211774 240 46ft 0kts
24-Dec-17 16:44 34.200260 -119.211775 240 46ft 0kts
24-Dec-17 16:45 34.200259 -119.211775 240 46ft 0kts
24-Dec-17 16:46 34.200259 -119.211775 240 46ft 0kts

Navigation Log

Ident Type
1. KVNY Airport
2. IPIHO Fix
3. SUANA Fix
4. FIM Navaid
5. KOXR Airport